MMTC/TRC METAR and TAF weather

Enter ICAO airport designator
Station Type Date Time Source
MMTC METAR 2020/04/03 21:41 UTC NOAA

MMTC 032141Z 08005KT 10SM FEW200 33/M02 A2983 RMK 8/002 ISOL ACSL


Station Type Date Time Source
MMTC Decoded METAR 2020/04/03 21:41 UTC NOAA

Torreon, Coah., Mexico (MMTC) 25-32N 103-27W 1150M
Apr 03, 2020 - 05:41 PM EDT / 2020.04.03 2141 UTC
Wind: from the E (080 degrees) at 6 MPH (5 KT):0
Visibility: 10 mile(s):0
Sky conditions: mostly clear
Temperature: 91 F (33 C)
Dew Point: 28 F (-2 C)
Relative Humidity: 10%
Pressure (altimeter): 29.83 in. Hg (1010 hPa)
ob: MMTC 032141Z 08005KT 10SM FEW200 33/M02 A2983 RMK 8/002 ISOL ACSL
cycle: 21

Station Type Date Time Source
MMTC TAF 2020/04/03 18:05 UTC NOAA

TAF MMTC 031701Z 0318/0418 32010KT P6SM SCT100 BKN200
FM040600 33005KT P6SM SCT030 BKN200

Example: see airport list